createdAt,value
2022-12-31T00:00:01.002Z,97.22
2022-12-31T00:01:01.015Z,97.02
2022-12-31T00:02:01.223Z,96.81
2022-12-31T00:03:01.123Z,97.02
2022-12-31T00:04:00.983Z,97.02
2022-12-31T00:05:01.013Z,97.02
2022-12-31T00:06:00.945Z,97.02
2022-12-31T00:07:00.967Z,97.37
2022-12-31T00:08:00.965Z,97.57
2022-12-31T00:09:00.930Z,97.47
2022-12-31T00:10:00.894Z,97.67
2022-12-31T00:11:00.954Z,97.78
2022-12-31T00:12:00.839Z,97.67
2022-12-31T00:13:00.890Z,97.57
2022-12-31T00:14:00.861Z,97.42
2022-12-31T00:15:00.830Z,97.32
2022-12-31T00:16:00.816Z,97.22
2022-12-31T00:17:00.909Z,97.32
2022-12-31T00:18:00.784Z,97.53
2022-12-31T00:19:00.826Z,97.53
2022-12-31T00:20:00.738Z,97.32
2022-12-31T00:21:00.750Z,97.53
2022-12-31T00:22:00.734Z,97.32
2022-12-31T00:23:00.841Z,97.53
2022-12-31T00:24:00.709Z,97.63
2022-12-31T00:25:00.736Z,97.53
2022-12-31T00:26:00.640Z,97.63
2022-12-31T00:27:00.646Z,97.83
2022-12-31T00:28:00.702Z,97.83
2022-12-31T00:29:00.684Z,97.83
2022-12-31T00:30:04.497Z,97.83
2022-12-31T00:31:00.687Z,97.88
2022-12-31T00:32:00.565Z,98.03
2022-12-31T00:33:00.579Z,97.73
2022-12-31T00:34:00.587Z,97.73
2022-12-31T00:35:00.672Z,97.93
2022-12-31T00:36:00.557Z,97.83
2022-12-31T00:37:00.565Z,98.03
2022-12-31T00:38:00.499Z,98.03
2022-12-31T00:39:00.573Z,98.28
2022-12-31T00:40:00.465Z,98.34
2022-12-31T00:41:00.518Z,98.65
2022-12-31T00:42:00.458Z,98.85
2022-12-31T00:43:00.488Z,99.16
2022-12-31T00:44:00.427Z,99.51
2022-12-31T00:45:00.455Z,99.91
2022-12-31T00:46:00.464Z,99.99
2022-12-31T00:47:00.465Z,99.99
2022-12-31T00:48:00.386Z,99.99
2022-12-31T00:49:00.398Z,99.99
2022-12-31T00:50:00.342Z,99.99
2022-12-31T00:51:00.376Z,99.99
2022-12-31T00:52:00.311Z,99.99
2022-12-31T00:53:00.461Z,99.99
2022-12-31T00:54:00.374Z,99.99
2022-12-31T00:55:00.328Z,99.99
2022-12-31T00:56:00.289Z,99.99
2022-12-31T00:57:00.300Z,99.99
2022-12-31T00:58:00.261Z,99.99
2022-12-31T00:59:00.490Z,99.99
2022-12-31T01:00:00.228Z,99.99
2022-12-31T01:01:00.326Z,99.99
2022-12-31T01:02:00.336Z,99.99
2022-12-31T01:03:00.371Z,99.99
2022-12-31T01:04:00.152Z,99.99
2022-12-31T01:05:00.299Z,99.99
2022-12-31T01:06:00.150Z,99.99
2022-12-31T01:07:00.134Z,99.99
2022-12-31T01:08:00.121Z,99.99
2022-12-31T01:09:00.142Z,99.99
2022-12-31T01:10:00.142Z,99.99
2022-12-31T01:11:00.433Z,99.99
2022-12-31T01:12:00.039Z,99.99
2022-12-31T01:13:00.089Z,99.99
2022-12-31T01:14:00.023Z,99.99
2022-12-31T01:15:00.044Z,99.99
2022-12-31T01:16:00.004Z,99.99
2022-12-31T01:17:00.020Z,99.99
2022-12-31T01:17:59.968Z,99.99
2022-12-31T01:18:59.978Z,99.99
2022-12-31T01:19:59.945Z,99.99
2022-12-31T01:20:59.956Z,99.99
2022-12-31T01:21:59.894Z,99.99
2022-12-31T01:22:59.974Z,99.99
2022-12-31T01:23:59.865Z,99.99
2022-12-31T01:24:59.889Z,99.99
2022-12-31T01:25:59.873Z,99.99
2022-12-31T01:26:59.852Z,99.99
2022-12-31T01:27:59.840Z,99.99
2022-12-31T01:28:59.969Z,99.99
2022-12-31T01:29:59.793Z,99.99
2022-12-31T01:30:59.912Z,99.99
2022-12-31T01:31:59.771Z,99.99
2022-12-31T01:32:59.795Z,99.99
2022-12-31T01:33:59.769Z,99.99
2022-12-31T01:34:59.864Z,99.99
2022-12-31T01:35:59.740Z,99.99
2022-12-31T01:36:59.764Z,99.99
2022-12-31T01:37:59.683Z,99.99
2022-12-31T01:38:59.747Z,99.99
2022-12-31T01:39:59.674Z,99.99
2022-12-31T01:40:59.710Z,99.99
2022-12-31T01:41:59.661Z,99.99
2022-12-31T01:42:59.644Z,99.99
2022-12-31T01:43:59.642Z,99.99
2022-12-31T01:44:59.635Z,99.99
2022-12-31T01:45:59.628Z,99.99
2022-12-31T01:46:59.627Z,99.99
2022-12-31T01:47:59.583Z,99.99
2022-12-31T01:48:59.585Z,99.99
2022-12-31T01:49:59.539Z,99.99
2022-12-31T01:50:59.556Z,99.99
2022-12-31T01:51:59.490Z,99.99
2022-12-31T01:52:59.550Z,99.99
2022-12-31T01:53:59.500Z,99.99
2022-12-31T01:54:59.489Z,99.99
2022-12-31T01:55:59.482Z,99.99
2022-12-31T01:56:59.481Z,99.99
2022-12-31T01:57:59.418Z,99.99
2022-12-31T01:58:59.491Z,99.99
2022-12-31T01:59:59.391Z,99.99
2022-12-31T02:01:00.409Z,99.99
2022-12-31T02:01:59.429Z,99.99
2022-12-31T02:02:59.489Z,99.99
2022-12-31T02:03:59.334Z,99.99
2022-12-31T02:04:59.389Z,99.99
2022-12-31T02:05:59.336Z,99.99
2022-12-31T02:06:59.324Z,99.99
2022-12-31T02:07:59.319Z,99.99
2022-12-31T02:08:59.322Z,99.99
2022-12-31T02:09:59.259Z,99.99
2022-12-31T02:10:59.340Z,99.99
2022-12-31T02:11:59.234Z,99.99
2022-12-31T02:12:59.254Z,99.99
2022-12-31T02:13:59.232Z,99.99
2022-12-31T02:14:59.216Z,99.99
2022-12-31T02:15:59.222Z,99.99
2022-12-31T02:16:59.239Z,99.99
2022-12-31T02:17:59.148Z,99.99
2022-12-31T02:18:59.236Z,99.99
2022-12-31T02:19:59.152Z,99.99
2022-12-31T02:20:59.174Z,99.99
2022-12-31T02:21:59.106Z,99.99
2022-12-31T02:22:59.196Z,99.99
2022-12-31T02:23:59.069Z,99.99
2022-12-31T02:24:59.093Z,99.99
2022-12-31T02:25:59.082Z,99.99
2022-12-31T02:26:59.058Z,99.99
2022-12-31T02:27:59.046Z,99.99
2022-12-31T02:28:59.103Z,99.99
2022-12-31T02:29:58.989Z,99.99
2022-12-31T02:30:59.099Z,99.99
2022-12-31T02:31:58.976Z,99.99
2022-12-31T02:32:58.985Z,99.99
2022-12-31T02:33:58.969Z,99.99
2022-12-31T02:34:58.980Z,99.99
2022-12-31T02:35:58.950Z,99.99
2022-12-31T02:36:58.953Z,99.99
2022-12-31T02:37:58.905Z,99.99
2022-12-31T02:38:58.931Z,99.99
2022-12-31T02:39:58.862Z,99.99
2022-12-31T02:40:58.927Z,99.99
2022-12-31T02:41:58.860Z,99.99
2022-12-31T02:42:58.861Z,99.99
2022-12-31T02:43:58.831Z,99.99
2022-12-31T02:44:58.843Z,99.99
2022-12-31T02:45:58.789Z,99.99
2022-12-31T02:46:58.940Z,99.99
2022-12-31T02:47:58.754Z,99.99
2022-12-31T02:48:58.778Z,99.99
2022-12-31T02:49:58.755Z,99.99
2022-12-31T02:50:58.767Z,99.99
2022-12-31T02:51:58.700Z,99.99
2022-12-31T02:52:58.747Z,99.99
2022-12-31T02:53:58.696Z,99.99
2022-12-31T02:54:58.701Z,99.99
2022-12-31T02:55:58.676Z,99.99
2022-12-31T02:56:58.698Z,99.99
2022-12-31T02:57:58.620Z,99.99
2022-12-31T02:58:58.786Z,99.99
2022-12-31T02:59:58.592Z,99.99
2022-12-31T03:00:58.664Z,99.99
2022-12-31T03:01:58.757Z,99.99
2022-12-31T03:02:58.598Z,99.99
2022-12-31T03:03:58.572Z,99.99
2022-12-31T03:04:58.612Z,99.99
2022-12-31T03:05:58.516Z,99.99
2022-12-31T03:06:58.532Z,99.99
2022-12-31T03:07:58.517Z,99.99
2022-12-31T03:08:58.536Z,99.99
2022-12-31T03:09:58.463Z,99.99
2022-12-31T03:10:58.537Z,99.99
2022-12-31T03:11:58.437Z,99.99
2022-12-31T03:12:58.471Z,99.99
2022-12-31T03:13:58.432Z,99.99
2022-12-31T03:14:58.421Z,99.99
2022-12-31T03:15:58.428Z,99.99
2022-12-31T03:16:58.443Z,99.99
2022-12-31T03:17:58.375Z,99.99
2022-12-31T03:18:58.403Z,99.99
2022-12-31T03:19:58.342Z,99.99
2022-12-31T03:20:58.338Z,99.99
2022-12-31T03:21:58.334Z,99.99
2022-12-31T03:22:58.454Z,99.99
2022-12-31T03:23:58.279Z,99.99
2022-12-31T03:24:58.288Z,99.99
2022-12-31T03:25:58.276Z,99.99
2022-12-31T03:26:58.261Z,99.99
2022-12-31T03:27:58.279Z,99.99
2022-12-31T03:28:58.317Z,99.99
2022-12-31T03:29:58.200Z,99.99
2022-12-31T03:30:58.241Z,99.99
2022-12-31T03:31:58.170Z,99.99
2022-12-31T03:32:58.181Z,99.99
2022-12-31T03:33:58.173Z,99.99
2022-12-31T03:34:58.171Z,99.99
2022-12-31T03:35:58.152Z,99.99
2022-12-31T03:36:58.164Z,99.99
2022-12-31T03:37:58.104Z,99.99
2022-12-31T03:38:58.129Z,99.99
2022-12-31T03:39:58.064Z,99.99
2022-12-31T03:40:58.113Z,99.99
2022-12-31T03:41:58.077Z,99.99
2022-12-31T03:42:58.055Z,99.99
2022-12-31T03:43:58.039Z,99.99
2022-12-31T03:44:58.052Z,99.99
2022-12-31T03:45:57.999Z,99.99
2022-12-31T03:46:58.141Z,99.99
2022-12-31T03:47:57.977Z,99.99
2022-12-31T03:48:57.966Z,99.99
2022-12-31T03:49:57.957Z,99.99
2022-12-31T03:50:57.947Z,99.99
2022-12-31T03:51:57.932Z,99.99
2022-12-31T03:52:58.064Z,99.99
2022-12-31T03:53:57.868Z,99.99
2022-12-31T03:54:57.887Z,99.99
2022-12-31T03:55:57.882Z,99.99
2022-12-31T03:57:00.253Z,99.99
2022-12-31T03:57:57.828Z,99.99
2022-12-31T03:58:57.895Z,99.99
2022-12-31T03:59:57.800Z,99.99
2022-12-31T04:00:57.954Z,99.99
2022-12-31T04:01:57.875Z,99.99
2022-12-31T04:02:57.861Z,99.99
2022-12-31T04:03:57.773Z,99.99
2022-12-31T04:04:57.821Z,99.99
2022-12-31T04:05:57.720Z,99.99
2022-12-31T04:06:57.775Z,99.99
2022-12-31T04:07:57.691Z,99.99
2022-12-31T04:08:57.724Z,99.99
2022-12-31T04:09:57.715Z,99.99
2022-12-31T04:10:57.811Z,99.99
2022-12-31T04:11:57.647Z,99.99
2022-12-31T04:12:57.653Z,99.99
2022-12-31T04:13:57.636Z,99.99
2022-12-31T04:14:57.636Z,99.99
2022-12-31T04:15:57.605Z,99.99
2022-12-31T04:16:57.759Z,99.99
2022-12-31T04:17:57.569Z,99.99
2022-12-31T04:18:57.604Z,99.99
2022-12-31T04:19:57.564Z,99.99
2022-12-31T04:20:57.552Z,99.99
2022-12-31T04:21:57.535Z,99.99
2022-12-31T04:22:57.545Z,99.99
2022-12-31T04:23:57.499Z,99.99
2022-12-31T04:24:57.528Z,99.99
2022-12-31T04:25:57.467Z,99.99
2022-12-31T04:27:02.083Z,99.99
2022-12-31T04:27:58.492Z,99.99
2022-12-31T04:28:57.486Z,99.99
2022-12-31T04:29:57.411Z,99.99
2022-12-31T04:30:57.448Z,99.99
2022-12-31T04:31:57.447Z,99.99
2022-12-31T04:32:57.386Z,99.99
2022-12-31T04:33:57.415Z,99.99
2022-12-31T04:34:57.356Z,99.99
2022-12-31T04:35:57.364Z,99.99
2022-12-31T04:36:57.364Z,99.99
2022-12-31T04:37:57.293Z,99.99
2022-12-31T04:38:57.339Z,99.99
2022-12-31T04:40:03.524Z,99.99
2022-12-31T04:40:58.291Z,99.99
2022-12-31T04:41:57.277Z,99.99
2022-12-31T04:42:57.255Z,99.99
2022-12-31T04:43:57.239Z,99.99
2022-12-31T04:44:57.233Z,99.99
2022-12-31T04:45:57.338Z,99.99
2022-12-31T04:46:57.204Z,99.99
2022-12-31T04:47:57.225Z,99.99
2022-12-31T04:48:57.200Z,99.99
2022-12-31T04:49:57.185Z,99.99
2022-12-31T04:50:57.167Z,99.99
2022-12-31T04:51:57.268Z,99.99
2022-12-31T04:52:57.115Z,99.99
2022-12-31T04:53:57.148Z,99.99
2022-12-31T04:54:57.063Z,99.99
2022-12-31T04:55:57.137Z,99.99
2022-12-31T04:56:57.075Z,99.99
2022-12-31T04:57:57.181Z,99.99
2022-12-31T04:58:57.025Z,99.99
2022-12-31T04:59:57.083Z,99.99
2022-12-31T05:00:57.090Z,99.99
2022-12-31T05:01:57.211Z,99.99
2022-12-31T05:02:57.032Z,99.99
2022-12-31T05:03:57.095Z,99.99
2022-12-31T05:04:56.956Z,99.99
2022-12-31T05:05:56.985Z,99.99
2022-12-31T05:06:56.970Z,99.99
2022-12-31T05:07:56.958Z,99.99
2022-12-31T05:08:56.909Z,99.99
2022-12-31T05:09:56.943Z,99.99
2022-12-31T05:10:56.891Z,99.99
2022-12-31T05:11:56.887Z,99.99
2022-12-31T05:12:56.832Z,99.99
2022-12-31T05:13:56.874Z,99.99
2022-12-31T05:14:56.837Z,99.99
2022-12-31T05:15:56.929Z,99.99
2022-12-31T05:16:56.829Z,99.99
2022-12-31T05:17:56.826Z,99.99
2022-12-31T05:18:56.756Z,99.99
2022-12-31T05:19:56.799Z,99.99
2022-12-31T05:20:56.763Z,99.99
2022-12-31T05:21:56.765Z,99.99
2022-12-31T05:22:56.732Z,99.99
2022-12-31T05:23:56.713Z,99.99
2022-12-31T05:24:56.676Z,99.99
2022-12-31T05:25:56.714Z,99.99
2022-12-31T05:26:56.655Z,99.99
2022-12-31T05:27:56.792Z,99.99
2022-12-31T05:28:56.645Z,99.99
2022-12-31T05:29:56.638Z,99.99
2022-12-31T05:30:56.664Z,99.99
2022-12-31T05:31:56.632Z,99.99
2022-12-31T05:32:56.599Z,99.99
2022-12-31T05:33:56.648Z,99.99
2022-12-31T05:34:56.575Z,99.99
2022-12-31T05:35:56.559Z,99.99
2022-12-31T05:36:56.518Z,99.99
2022-12-31T05:37:56.558Z,99.99
2022-12-31T05:38:56.495Z,99.99
2022-12-31T05:39:56.654Z,99.99
2022-12-31T05:40:56.487Z,99.99
2022-12-31T05:41:56.471Z,99.99
2022-12-31T05:42:57.425Z,99.99
2022-12-31T05:43:56.458Z,99.99
2022-12-31T05:44:56.409Z,99.99
2022-12-31T05:45:56.540Z,99.99
2022-12-31T05:46:56.383Z,99.99
2022-12-31T05:47:56.427Z,99.99
2022-12-31T05:48:56.380Z,99.99
2022-12-31T05:49:56.364Z,99.99
2022-12-31T05:50:56.357Z,99.99
2022-12-31T05:51:56.382Z,99.99
2022-12-31T05:52:56.306Z,99.99
2022-12-31T05:53:56.342Z,99.99
2022-12-31T05:54:56.272Z,99.99
2022-12-31T05:55:56.318Z,99.99
2022-12-31T05:56:56.286Z,99.99
2022-12-31T05:57:56.294Z,99.99
2022-12-31T05:58:56.304Z,99.99
2022-12-31T05:59:56.280Z,99.99
2022-12-31T06:00:56.263Z,99.99
2022-12-31T06:01:56.239Z,99.99
2022-12-31T06:02:56.315Z,99.99
2022-12-31T06:03:56.401Z,99.99
2022-12-31T06:04:56.138Z,99.99
2022-12-31T06:05:56.199Z,99.99
2022-12-31T06:06:56.117Z,99.99
2022-12-31T06:07:56.159Z,99.99
2022-12-31T06:08:56.137Z,99.99
2022-12-31T06:09:56.141Z,99.99
2022-12-31T06:10:56.091Z,99.99
2022-12-31T06:11:56.079Z,99.99
2022-12-31T06:12:56.053Z,99.99
2022-12-31T06:13:56.077Z,99.99
2022-12-31T06:14:56.032Z,99.99
2022-12-31T06:15:56.227Z,99.99
2022-12-31T06:16:56.029Z,99.99
2022-12-31T06:17:56.004Z,99.99
2022-12-31T06:18:55.963Z,99.99
2022-12-31T06:19:55.998Z,99.99
2022-12-31T06:20:55.960Z,99.99
2022-12-31T06:21:55.984Z,99.99
2022-12-31T06:22:55.932Z,99.99
2022-12-31T06:23:55.914Z,99.99
2022-12-31T06:24:55.874Z,99.99
2022-12-31T06:25:55.920Z,99.99
2022-12-31T06:26:55.855Z,99.99
2022-12-31T06:27:56.021Z,99.99
2022-12-31T06:28:55.851Z,99.99
2022-12-31T06:29:55.835Z,99.99
2022-12-31T06:30:55.850Z,99.99
2022-12-31T06:31:55.816Z,99.99
2022-12-31T06:32:55.775Z,99.99
2022-12-31T06:33:55.848Z,99.99
2022-12-31T06:34:55.773Z,99.99
2022-12-31T06:35:55.772Z,99.99
2022-12-31T06:36:55.726Z,99.99
2022-12-31T06:37:55.754Z,99.99
2022-12-31T06:38:55.696Z,99.99
2022-12-31T06:39:55.784Z,99.99
2022-12-31T06:40:55.694Z,99.99
2022-12-31T06:41:55.679Z,99.99
2022-12-31T06:42:59.935Z,99.99
2022-12-31T06:43:55.654Z,99.99
2022-12-31T06:44:55.669Z,99.99
2022-12-31T06:45:55.775Z,99.99
2022-12-31T06:46:55.637Z,99.99
2022-12-31T06:47:55.633Z,99.99
2022-12-31T06:48:55.593Z,99.99
2022-12-31T06:49:55.580Z,99.99
2022-12-31T06:50:55.558Z,99.99
2022-12-31T06:51:55.591Z,99.99
2022-12-31T06:52:55.517Z,99.99
2022-12-31T06:53:55.555Z,99.99
2022-12-31T06:54:55.483Z,99.99
2022-12-31T06:55:55.528Z,99.99
2022-12-31T06:56:55.486Z,99.99
2022-12-31T06:57:55.513Z,99.99
2022-12-31T06:58:55.452Z,99.99
2022-12-31T06:59:55.451Z,99.99
2022-12-31T07:00:55.412Z,99.99
2022-12-31T07:01:55.585Z,99.99
2022-12-31T07:02:55.413Z,99.99
2022-12-31T07:03:55.449Z,99.99
2022-12-31T07:04:55.376Z,99.99
2022-12-31T07:05:55.369Z,99.99
2022-12-31T07:06:55.325Z,99.99
2022-12-31T07:07:55.374Z,99.99
2022-12-31T07:08:55.324Z,99.99
2022-12-31T07:09:55.355Z,99.99
2022-12-31T07:10:55.299Z,99.99
2022-12-31T07:11:55.286Z,99.99
2022-12-31T07:12:55.250Z,99.99
2022-12-31T07:13:55.304Z,99.99
2022-12-31T07:14:55.263Z,99.99
2022-12-31T07:15:55.322Z,99.99
2022-12-31T07:16:55.226Z,99.99
2022-12-31T07:17:55.223Z,99.99
2022-12-31T07:18:55.198Z,99.99
2022-12-31T07:19:57.648Z,99.99
2022-12-31T07:20:55.149Z,99.99
2022-12-31T07:21:55.219Z,99.99
2022-12-31T07:22:55.149Z,99.99
2022-12-31T07:23:55.141Z,99.99
2022-12-31T07:24:55.103Z,99.99
2022-12-31T07:25:55.144Z,99.99
2022-12-31T07:26:57.042Z,99.99
2022-12-31T07:27:55.151Z,99.99
2022-12-31T07:28:55.071Z,99.99
2022-12-31T07:29:55.065Z,99.99
2022-12-31T07:30:55.126Z,99.99
2022-12-31T07:31:55.055Z,99.99
2022-12-31T07:32:54.999Z,99.99
2022-12-31T07:33:55.113Z,99.99
2022-12-31T07:34:54.983Z,99.99
2022-12-31T07:35:55.011Z,99.99
2022-12-31T07:36:54.970Z,99.99
2022-12-31T07:37:54.966Z,99.99
2022-12-31T07:38:54.918Z,99.99
2022-12-31T07:39:55.056Z,99.99
2022-12-31T07:40:57.571Z,99.99
2022-12-31T07:41:54.910Z,99.99
2022-12-31T07:42:54.884Z,99.99
2022-12-31T07:43:54.894Z,99.99
2022-12-31T07:44:54.840Z,99.99
2022-12-31T07:45:54.915Z,99.99
2022-12-31T07:46:54.828Z,99.99
2022-12-31T07:48:00.527Z,99.99
2022-12-31T07:48:55.813Z,99.99
2022-12-31T07:49:54.813Z,99.99
2022-12-31T07:50:54.794Z,99.99
2022-12-31T07:51:54.879Z,99.99
2022-12-31T07:52:54.730Z,99.99
2022-12-31T07:53:54.777Z,99.99
2022-12-31T07:54:54.713Z,99.99
2022-12-31T07:55:54.748Z,99.99
2022-12-31T07:56:54.712Z,99.99
2022-12-31T07:57:54.814Z,99.99
2022-12-31T07:58:54.669Z,99.99
2022-12-31T07:59:54.667Z,99.99
2022-12-31T08:00:54.689Z,99.99
2022-12-31T08:01:54.815Z,99.99
2022-12-31T08:02:54.635Z,99.99
2022-12-31T08:03:54.650Z,99.99
2022-12-31T08:04:54.599Z,99.99
2022-12-31T08:05:54.635Z,99.99
2022-12-31T08:06:54.600Z,99.99
2022-12-31T08:07:54.573Z,99.99
2022-12-31T08:08:54.575Z,99.99
2022-12-31T08:09:54.617Z,99.99
2022-12-31T08:10:54.520Z,99.99
2022-12-31T08:11:54.506Z,99.99
2022-12-31T08:12:54.484Z,99.99
2022-12-31T08:13:54.504Z,99.99
2022-12-31T08:14:54.445Z,99.99
2022-12-31T08:15:54.631Z,99.99
2022-12-31T08:16:54.446Z,99.99
2022-12-31T08:17:54.436Z,99.99
2022-12-31T08:18:54.435Z,99.99
2022-12-31T08:19:54.399Z,99.99
2022-12-31T08:20:54.371Z,99.99
2022-12-31T08:21:54.454Z,99.99
2022-12-31T08:22:54.353Z,99.99
2022-12-31T08:23:54.374Z,99.99
2022-12-31T08:24:54.334Z,99.99
2022-12-31T08:25:54.357Z,99.99
2022-12-31T08:26:54.300Z,99.99
2022-12-31T08:27:54.441Z,99.99
2022-12-31T08:28:54.285Z,99.99
2022-12-31T08:29:54.278Z,99.99
2022-12-31T08:30:54.248Z,99.99
2022-12-31T08:31:54.305Z,99.99
2022-12-31T08:32:54.217Z,99.99
2022-12-31T08:33:54.352Z,99.99
2022-12-31T08:34:54.163Z,99.99
2022-12-31T08:35:54.212Z,99.99
2022-12-31T08:36:54.182Z,99.99
2022-12-31T08:37:54.157Z,99.99
2022-12-31T08:38:54.144Z,99.99
2022-12-31T08:39:54.266Z,99.99
2022-12-31T08:40:54.124Z,99.99
2022-12-31T08:41:54.157Z,99.99
2022-12-31T08:42:54.115Z,99.99
2022-12-31T08:43:54.080Z,99.99
2022-12-31T08:44:54.070Z,99.99
2022-12-31T08:45:54.184Z,99.99
2022-12-31T08:46:54.005Z,99.99
2022-12-31T08:47:59.661Z,99.99
2022-12-31T08:48:55.036Z,99.99
2022-12-31T08:49:54.003Z,99.99
2022-12-31T08:50:53.995Z,99.99
2022-12-31T08:51:54.079Z,99.99
2022-12-31T08:52:53.934Z,99.99
2022-12-31T08:53:53.975Z,99.99
2022-12-31T08:54:53.922Z,99.99
2022-12-31T08:55:53.961Z,99.99
2022-12-31T08:56:53.897Z,99.99
2022-12-31T08:57:53.928Z,99.99
2022-12-31T08:58:53.918Z,99.99
2022-12-31T08:59:53.852Z,99.99
2022-12-31T09:00:53.890Z,99.99
2022-12-31T09:01:53.977Z,99.99
2022-12-31T09:02:53.824Z,99.99
2022-12-31T09:03:53.947Z,99.99
2022-12-31T09:04:53.840Z,99.99
2022-12-31T09:05:53.771Z,99.99
2022-12-31T09:06:53.800Z,99.99
2022-12-31T09:07:53.733Z,99.99
2022-12-31T09:08:53.743Z,99.99
2022-12-31T09:09:53.861Z,99.99
2022-12-31T09:10:53.717Z,99.99
2022-12-31T09:11:53.741Z,99.99
2022-12-31T09:12:53.721Z,99.99
2022-12-31T09:13:53.655Z,99.99
2022-12-31T09:14:53.666Z,99.99
2022-12-31T09:15:53.683Z,99.99
2022-12-31T09:16:53.699Z,99.99
2022-12-31T09:17:53.588Z,99.99
2022-12-31T09:18:53.653Z,99.99
2022-12-31T09:19:53.572Z,99.99
2022-12-31T09:20:53.609Z,99.99
2022-12-31T09:21:53.686Z,99.99
2022-12-31T09:22:54.391Z,99.99
2022-12-31T09:23:53.557Z,99.99
2022-12-31T09:24:53.565Z,99.99
2022-12-31T09:25:53.513Z,99.99
2022-12-31T09:26:53.533Z,99.99
2022-12-31T09:27:53.505Z,99.99
2022-12-31T09:28:53.471Z,99.99
2022-12-31T09:29:53.458Z,99.99
2022-12-31T09:30:53.498Z,99.99
2022-12-31T09:31:53.446Z,99.99
2022-12-31T09:33:00.320Z,99.99
2022-12-31T09:33:54.460Z,99.99
2022-12-31T09:34:53.402Z,99.99
2022-12-31T09:35:53.392Z,99.99
2022-12-31T09:36:53.399Z,99.99
2022-12-31T09:37:53.329Z,99.99
2022-12-31T09:38:53.369Z,99.99
2022-12-31T09:39:53.353Z,99.99
2022-12-31T09:40:53.348Z,99.99
2022-12-31T09:41:53.301Z,99.99
2022-12-31T09:42:53.295Z,99.99
2022-12-31T09:43:58.976Z,99.99
2022-12-31T09:44:54.333Z,99.99
2022-12-31T09:45:53.247Z,99.99
2022-12-31T09:46:53.235Z,99.99
2022-12-31T09:47:53.223Z,99.99
2022-12-31T09:48:53.241Z,99.99
2022-12-31T09:49:53.168Z,99.99
2022-12-31T09:50:53.333Z,99.99
2022-12-31T09:51:53.146Z,99.99
2022-12-31T09:52:53.165Z,99.99
2022-12-31T09:53:53.155Z,99.99
2022-12-31T09:54:53.138Z,99.99
2022-12-31T09:55:53.125Z,99.99
2022-12-31T09:56:58.883Z,99.99
2022-12-31T09:57:54.070Z,99.99
2022-12-31T09:58:53.097Z,99.99
2022-12-31T09:59:53.041Z,99.99
2022-12-31T10:00:53.062Z,99.99
2022-12-31T10:01:53.152Z,99.99
2022-12-31T10:02:53.229Z,99.99
2022-12-31T10:03:59.229Z,99.99
2022-12-31T10:04:54.066Z,99.99
2022-12-31T10:05:52.957Z,99.99
2022-12-31T10:06:53.001Z,99.99
2022-12-31T10:07:53.820Z,99.99
2022-12-31T10:08:52.981Z,99.99
2022-12-31T10:09:52.932Z,99.99
2022-12-31T10:10:52.910Z,99.99
2022-12-31T10:11:52.900Z,99.99
2022-12-31T10:12:52.922Z,99.99
2022-12-31T10:13:52.845Z,99.99
2022-12-31T10:14:52.990Z,99.99
2022-12-31T10:15:52.844Z,99.99
2022-12-31T10:16:52.864Z,99.99
2022-12-31T10:17:52.815Z,99.99
2022-12-31T10:18:52.847Z,99.99
2022-12-31T10:19:52.775Z,99.99
2022-12-31T10:20:52.815Z,99.99
2022-12-31T10:21:52.764Z,99.99
2022-12-31T10:22:52.760Z,99.99
2022-12-31T10:23:52.735Z,99.99
2022-12-31T10:24:52.749Z,99.99
2022-12-31T10:25:52.753Z,99.99
2022-12-31T10:26:53.569Z,99.99
2022-12-31T10:27:52.668Z,99.99
2022-12-31T10:28:52.668Z,99.99
2022-12-31T10:29:52.658Z,99.99
2022-12-31T10:30:52.668Z,99.99
2022-12-31T10:31:52.630Z,99.99
2022-12-31T10:32:52.682Z,99.99
2022-12-31T10:33:52.576Z,99.99
2022-12-31T10:34:52.607Z,99.99
2022-12-31T10:35:52.578Z,99.99
2022-12-31T10:36:52.593Z,99.99
2022-12-31T10:37:52.526Z,99.99
2022-12-31T10:38:52.606Z,99.99
2022-12-31T10:39:52.514Z,99.99
2022-12-31T10:40:52.515Z,99.99
2022-12-31T10:41:52.492Z,99.99
2022-12-31T10:42:52.493Z,99.99
2022-12-31T10:43:52.480Z,99.99
2022-12-31T10:44:52.597Z,99.99
2022-12-31T10:45:52.435Z,99.99
2022-12-31T10:46:52.464Z,99.99
2022-12-31T10:47:52.387Z,99.99
2022-12-31T10:48:52.424Z,99.99
2022-12-31T10:49:52.399Z,99.99
2022-12-31T10:50:52.523Z,99.99
2022-12-31T10:51:52.327Z,99.99
2022-12-31T10:52:52.350Z,99.99
2022-12-31T10:53:52.341Z,99.99
2022-12-31T10:54:52.327Z,99.99
2022-12-31T10:55:52.323Z,99.99
2022-12-31T10:56:52.366Z,99.99
2022-12-31T10:57:52.262Z,99.99
2022-12-31T10:58:52.296Z,99.99
2022-12-31T10:59:52.247Z,99.99
2022-12-31T11:00:52.234Z,99.99
2022-12-31T11:01:52.373Z,99.99
2022-12-31T11:02:52.393Z,99.99
2022-12-31T11:03:52.212Z,99.99
2022-12-31T11:04:52.228Z,99.99
2022-12-31T11:05:52.152Z,99.99
2022-12-31T11:06:52.218Z,99.99
2022-12-31T11:07:52.114Z,99.99
2022-12-31T11:08:52.246Z,99.99
2022-12-31T11:09:52.123Z,99.99
2022-12-31T11:10:52.102Z,99.99
2022-12-31T11:11:52.090Z,99.99
2022-12-31T11:12:52.112Z,99.99
2022-12-31T11:13:52.044Z,99.99
2022-12-31T11:14:52.207Z,99.99
2022-12-31T11:15:52.058Z,99.99
2022-12-31T11:16:52.031Z,99.99
2022-12-31T11:17:52.015Z,99.99
2022-12-31T11:18:52.018Z,99.99
2022-12-31T11:19:51.984Z,99.99
2022-12-31T11:20:52.113Z,99.99
2022-12-31T11:21:51.927Z,99.99
2022-12-31T11:22:51.949Z,99.99
2022-12-31T11:23:51.935Z,99.99
2022-12-31T11:24:51.948Z,99.99
2022-12-31T11:25:51.896Z,99.99
2022-12-31T11:26:51.990Z,99.99
2022-12-31T11:27:51.858Z,99.99
2022-12-31T11:28:51.882Z,99.99
2022-12-31T11:29:51.848Z,99.99
2022-12-31T11:30:51.873Z,99.99
2022-12-31T11:31:51.817Z,99.99
2022-12-31T11:32:51.963Z,99.99
2022-12-31T11:33:51.758Z,99.99
2022-12-31T11:34:51.820Z,99.99
2022-12-31T11:35:51.755Z,99.99
2022-12-31T11:36:51.761Z,99.99
2022-12-31T11:37:51.741Z,99.99
2022-12-31T11:38:51.807Z,99.99
2022-12-31T11:39:51.698Z,99.99
2022-12-31T11:40:51.741Z,99.99
2022-12-31T11:41:51.693Z,99.99
2022-12-31T11:42:51.681Z,99.99
2022-12-31T11:43:51.669Z,99.99
2022-12-31T11:44:51.715Z,99.99
2022-12-31T11:45:51.615Z,99.99
2022-12-31T11:46:51.685Z,99.99
2022-12-31T11:48:28.612Z,99.99
2022-12-31T11:48:52.602Z,99.99
2022-12-31T11:49:51.584Z,99.99
2022-12-31T11:50:51.602Z,99.99
2022-12-31T11:51:51.548Z,99.99
2022-12-31T11:52:51.585Z,99.99
2022-12-31T11:53:51.514Z,99.99
2022-12-31T11:54:51.517Z,99.99
2022-12-31T11:55:51.550Z,99.99
2022-12-31T11:56:51.545Z,99.99
2022-12-31T11:57:51.464Z,99.99
2022-12-31T11:58:51.535Z,99.99
2022-12-31T11:59:51.432Z,99.99
2022-12-31T12:00:51.445Z,99.99
2022-12-31T12:01:51.431Z,99.99
2022-12-31T12:02:51.520Z,99.99
2022-12-31T12:03:51.464Z,99.99
2022-12-31T12:04:51.426Z,99.99
2022-12-31T12:05:51.404Z,99.99
2022-12-31T12:06:51.393Z,99.99
2022-12-31T12:07:51.372Z,99.99
2022-12-31T12:08:51.473Z,99.99
2022-12-31T12:09:52.448Z,99.99
2022-12-31T12:10:51.315Z,99.99
2022-12-31T12:11:51.325Z,99.99
2022-12-31T12:12:51.330Z,99.99
2022-12-31T12:13:51.242Z,99.99
2022-12-31T12:14:51.451Z,99.99
2022-12-31T12:15:51.296Z,99.99
2022-12-31T12:16:51.235Z,99.99
2022-12-31T12:17:51.250Z,99.99
2022-12-31T12:18:51.199Z,99.99
2022-12-31T12:19:51.209Z,99.99
2022-12-31T12:20:51.244Z,99.99
2022-12-31T12:21:51.119Z,99.99
2022-12-31T12:22:51.203Z,99.99
2022-12-31T12:23:51.105Z,99.99
2022-12-31T12:24:51.118Z,99.99
2022-12-31T12:25:51.104Z,99.99
2022-12-31T12:26:51.145Z,99.99
2022-12-31T12:27:51.045Z,99.99
2022-12-31T12:28:51.083Z,99.99
2022-12-31T12:29:51.045Z,99.99
2022-12-31T12:30:51.072Z,99.99
2022-12-31T12:31:51.053Z,99.99
2022-12-31T12:32:51.107Z,99.99
2022-12-31T12:33:50.983Z,99.99
2022-12-31T12:34:51.007Z,99.99
2022-12-31T12:35:50.953Z,99.99
2022-12-31T12:36:50.953Z,99.99
2022-12-31T12:37:50.950Z,99.99
2022-12-31T12:38:50.972Z,99.99
2022-12-31T12:39:50.919Z,99.99
2022-12-31T12:40:50.939Z,99.99
2022-12-31T12:41:50.901Z,99.99
2022-12-31T12:42:50.925Z,99.99
2022-12-31T12:43:50.880Z,99.99
2022-12-31T12:44:50.920Z,99.99
2022-12-31T12:45:52.322Z,99.99
2022-12-31T12:46:50.905Z,99.99
2022-12-31T12:47:50.793Z,99.99
2022-12-31T12:48:50.812Z,99.99
2022-12-31T12:49:50.796Z,99.99
2022-12-31T12:50:50.874Z,99.99
2022-12-31T12:51:50.764Z,99.99